Time;durP1;ratioP1;P1;durP2;ratioP2;P2;SDS_P1;SDS_P2;PMS_P1;PMS_P2;Temp;Humidity;BMP_temperature;BMP_pressure;BME280_temperature;BME280_humidity;BME280_pressure;Samples;Min_cycle;Max_cycle;Signal;HPM_P1;HPM_P2
2023/08/08 00:00:04;;;;;;;0.90;0.90;;;;;12.60;96184.00;;;;5035134;28;20533;-60
2023/08/08 00:02:31;;;;;;;0.97;0.97;;;;;12.60;96188.00;;;;5034822;28;20192;-60
2023/08/08 00:04:59;;;;;;;0.80;0.80;;;;;12.50;96184.00;;;;5035311;28;20243;-60
2023/08/08 00:07:29;;;;;;;0.70;0.70;;;;;12.50;96184.00;;;;5034391;28;20216;-60
2023/08/08 00:09:59;;;;;;;0.60;0.60;;;;;12.50;96188.00;;;;5034787;28;20632;-60
2023/08/08 00:12:26;;;;;;;0.50;0.50;;;;;12.50;96181.00;;;;5034415;28;20185;-60
2023/08/08 00:14:53;;;;;;;0.70;0.70;;;;;12.50;96187.00;;;;5034342;28;20533;-61
2023/08/08 00:17:21;;;;;;;0.63;0.63;;;;;12.50;96193.00;;;;5034131;28;20220;-60
2023/08/08 00:19:48;;;;;;;1.17;0.83;;;;;12.50;96172.00;;;;5034299;28;20219;-60
2023/08/08 00:22:16;;;;;;;0.60;0.60;;;;;12.50;96181.00;;;;5034321;28;20196;-60
2023/08/08 00:24:43;;;;;;;0.67;0.67;;;;;12.60;96189.00;;;;5034262;28;20557;-60
2023/08/08 00:27:12;;;;;;;0.70;0.70;;;;;12.60;96181.00;;;;5033891;28;20227;-60
2023/08/08 00:29:39;;;;;;;0.63;0.63;;;;;12.60;96188.00;;;;5034372;28;20208;-60
2023/08/08 00:32:07;;;;;;;0.60;0.60;;;;;12.60;96185.00;;;;5034049;28;20197;-60
2023/08/08 00:34:34;;;;;;;0.70;0.70;;;;;12.50;96184.00;;;;5034401;28;20197;-60
2023/08/08 00:37:02;;;;;;;0.50;0.50;;;;;12.50;96178.00;;;;5033841;28;20208;-60
2023/08/08 00:39:29;;;;;;;0.60;0.60;;;;;12.50;96179.00;;;;5033712;28;20213;-60
2023/08/08 00:41:56;;;;;;;0.67;0.67;;;;;12.40;96183.00;;;;5033992;28;20200;-60
2023/08/08 00:44:25;;;;;;;0.60;0.60;;;;;12.40;96177.00;;;;5034335;28;20192;-60
2023/08/08 00:46:53;;;;;;;0.60;0.60;;;;;12.30;96168.00;;;;5034183;28;20216;-60
2023/08/08 00:49:20;;;;;;;0.80;0.80;;;;;12.20;96167.00;;;;5034058;28;20193;-60
2023/08/08 00:51:48;;;;;;;0.60;0.60;;;;;12.20;96171.00;;;;5034256;28;20195;-60
2023/08/08 00:54:16;;;;;;;0.70;0.70;;;;;12.10;96164.00;;;;5032794;28;20656;-60
2023/08/08 00:56:43;;;;;;;0.47;0.47;;;;;12.10;96164.00;;;;5034151;28;20220;-60
2023/08/08 00:59:14;;;;;;;0.80;0.80;;;;;12.20;96163.00;;;;5033808;28;20220;-61
2023/08/08 01:01:43;;;;;;;0.63;0.63;;;;;12.20;96165.00;;;;5033580;28;20550;-61
2023/08/08 01:04:11;;;;;;;0.93;0.93;;;;;12.10;96162.00;;;;5033216;28;20659;-60
2023/08/08 01:06:44;;;;;;;0.57;0.57;;;;;12.10;96162.00;;;;5033366;28;20213;-60
2023/08/08 01:09:20;;;;;;;0.90;0.90;;;;;12.10;96165.00;;;;5033361;28;20180;-60
2023/08/08 01:11:49;;;;;;;1.00;1.00;;;;;12.10;96156.00;;;;5033421;28;20263;-61
2023/08/08 01:14:19;;;;;;;0.67;0.67;;;;;12.10;96157.00;;;;5033387;28;20204;-60
2023/08/08 01:16:48;;;;;;;3.03;1.57;;;;;12.10;96155.00;;;;5033270;28;20277;-60
2023/08/08 01:19:26;;;;;;;0.80;0.80;;;;;12.10;96160.00;;;;5033529;28;20228;-60
2023/08/08 01:21:55;;;;;;;0.63;0.63;;;;;12.10;96152.00;;;;5033674;28;20192;-61
2023/08/08 01:24:28;;;;;;;1.07;1.07;;;;;12.10;96156.00;;;;5033785;28;20552;-60
2023/08/08 01:26:56;;;;;;;0.77;0.77;;;;;12.10;96150.00;;;;5033635;28;20267;-60
2023/08/08 01:29:24;;;;;;;0.63;0.63;;;;;12.10;96142.00;;;;5033653;28;20189;-60
2023/08/08 01:31:51;;;;;;;0.80;0.80;;;;;12.10;96143.00;;;;5032247;28;20205;-60
2023/08/08 01:34:18;;;;;;;0.70;0.70;;;;;12.10;96149.00;;;;5033706;28;20301;-61
2023/08/08 01:36:49;;;;;;;0.63;0.63;;;;;12.10;96135.00;;;;5033697;28;20213;-61
2023/08/08 01:39:22;;;;;;;0.63;0.63;;;;;12.00;96150.00;;;;5032356;28;20227;-61
2023/08/08 01:41:53;;;;;;;0.60;0.60;;;;;12.00;96146.00;;;;5033328;28;20180;-60
2023/08/08 01:44:23;;;;;;;0.70;0.70;;;;;11.90;96148.00;;;;5033228;28;20193;-60
2023/08/08 01:46:50;;;;;;;0.70;0.70;;;;;11.90;96148.00;;;;5032599;28;20209;-60
2023/08/08 01:49:17;;;;;;;0.90;0.90;;;;;11.90;96139.00;;;;5032729;28;20194;-60
2023/08/08 01:51:45;;;;;;;0.60;0.60;;;;;11.90;96145.00;;;;5032947;28;20196;-60
2023/08/08 01:54:12;;;;;;;0.63;0.63;;;;;11.90;96142.00;;;;5033003;28;20283;-60
2023/08/08 01:56:40;;;;;;;0.60;0.60;;;;;12.10;96152.00;;;;5032758;28;20699;-61
2023/08/08 01:59:09;;;;;;;0.50;0.50;;;;;12.00;96146.00;;;;5032717;28;20212;-60
2023/08/08 02:01:37;;;;;;;0.80;0.80;;;;;12.00;96149.00;;;;5032953;28;20224;-61
2023/08/08 02:04:05;;;;;;;0.70;0.70;;;;;12.10;96134.00;;;;5033032;28;20203;-60
2023/08/08 02:06:32;;;;;;;1.30;1.13;;;;;12.10;96141.00;;;;5033301;28;20266;-60
2023/08/08 02:09:00;;;;;;;0.70;0.70;;;;;12.10;96141.00;;;;5032751;28;20196;-60
2023/08/08 02:11:27;;;;;;;0.80;0.80;;;;;12.00;96138.00;;;;5032867;28;20197;-60
2023/08/08 02:13:55;;;;;;;0.70;0.70;;;;;12.10;96141.00;;;;5032664;28;20192;-60
2023/08/08 02:16:24;;;;;;;0.67;0.67;;;;;12.10;96142.00;;;;5032504;28;20212;-60
2023/08/08 02:18:51;;;;;;;0.90;0.90;;;;;12.20;96138.00;;;;5033040;28;20216;-60
2023/08/08 02:21:18;;;;;;;1.43;1.33;;;;;12.00;96130.00;;;;5032762;28;20274;-60
2023/08/08 02:23:46;;;;;;;0.60;0.60;;;;;12.00;96130.00;;;;5032664;28;20189;-60
2023/08/08 02:26:13;;;;;;;0.80;0.80;;;;;12.00;96126.00;;;;5032404;28;20217;-60
2023/08/08 02:28:41;;;;;;;0.80;0.80;;;;;11.90;96132.00;;;;5032553;28;20196;-60
2023/08/08 02:31:08;;;;;;;0.70;0.70;;;;;11.90;96130.00;;;;5032884;28;20197;-60
2023/08/08 02:33:37;;;;;;;1.60;1.23;;;;;11.90;96125.00;;;;5032755;28;20554;-61
2023/08/08 02:36:04;;;;;;;0.60;0.60;;;;;12.00;96125.00;;;;5032079;28;20217;-60
2023/08/08 02:38:32;;;;;;;0.70;0.70;;;;;12.00;96126.00;;;;5032620;28;20618;-60
2023/08/08 02:40:59;;;;;;;0.90;0.90;;;;;12.10;96120.00;;;;5032446;28;20254;-60
2023/08/08 02:43:27;;;;;;;0.60;0.60;;;;;12.10;96124.00;;;;5032332;28;20193;-60
2023/08/08 02:45:54;;;;;;;0.70;0.70;;;;;11.90;96129.00;;;;5032606;28;20217;-60
2023/08/08 02:48:21;;;;;;;0.60;0.60;;;;;12.00;96124.00;;;;5032684;28;20192;-60
2023/08/08 02:50:50;;;;;;;0.60;0.60;;;;;12.10;96131.00;;;;5034376;28;20656;-60
2023/08/08 02:53:18;;;;;;;0.70;0.70;;;;;12.10;96126.00;;;;5036028;28;20196;-60
2023/08/08 02:55:45;;;;;;;2.67;0.80;;;;;12.10;96114.00;;;;5035640;28;20196;-60
2023/08/08 02:58:12;;;;;;;0.70;0.70;;;;;12.10;96126.00;;;;5035782;28;20565;-60
2023/08/08 03:00:40;;;;;;;0.63;0.63;;;;;12.10;96114.00;;;;5035744;28;20221;-60
2023/08/08 03:03:08;;;;;;;0.70;0.70;;;;;12.20;96127.00;;;;5036683;28;20193;-60
2023/08/08 03:05:36;;;;;;;0.97;0.97;;;;;12.10;96129.00;;;;5036100;28;20193;-60
2023/08/08 03:08:05;;;;;;;8.10;1.00;;;;;12.10;96121.00;;;;5036315;28;20524;-60
2023/08/08 03:10:32;;;;;;;0.80;0.80;;;;;12.20;96130.00;;;;5036477;28;20197;-61
2023/08/08 03:13:00;;;;;;;0.67;0.67;;;;;12.20;96125.00;;;;5036286;28;20215;-60
2023/08/08 03:15:27;;;;;;;0.60;0.60;;;;;12.20;96127.00;;;;5035947;28;20197;-60
2023/08/08 03:17:55;;;;;;;0.87;0.87;;;;;12.20;96120.00;;;;5035849;28;20213;-60
2023/08/08 03:20:23;;;;;;;0.93;0.93;;;;;12.30;96122.00;;;;5035605;28;20213;-60
2023/08/08 03:22:50;;;;;;;0.50;0.50;;;;;12.10;96120.00;;;;5035833;28;20562;-60
2023/08/08 03:25:19;;;;;;;0.80;0.80;;;;;12.20;96118.00;;;;5035697;28;20204;-60
2023/08/08 03:27:46;;;;;;;0.70;0.70;;;;;12.20;96124.00;;;;5035735;28;20691;-60
2023/08/08 03:30:14;;;;;;;0.83;0.83;;;;;12.00;96119.00;;;;5035667;28;20193;-60
2023/08/08 03:32:41;;;;;;;0.70;0.70;;;;;12.00;96120.00;;;;5035736;28;20205;-61
2023/08/08 03:35:10;;;;;;;0.67;0.67;;;;;12.00;96125.00;;;;5035477;28;20192;-60
2023/08/08 03:37:37;;;;;;;0.70;0.70;;;;;12.10;96118.00;;;;5035451;28;20795;-60
2023/08/08 03:40:07;;;;;;;0.83;0.83;;;;;12.10;96123.00;;;;5035214;28;20256;-60
2023/08/08 03:42:36;;;;;;;0.57;0.57;;;;;12.10;96118.00;;;;5035355;28;20727;-60
2023/08/08 03:45:04;;;;;;;0.90;0.90;;;;;12.00;96114.00;;;;5035609;28;20188;-60
2023/08/08 03:47:31;;;;;;;0.53;0.53;;;;;12.00;96109.00;;;;5034838;28;20216;-60
2023/08/08 03:49:58;;;;;;;0.60;0.60;;;;;11.90;96115.00;;;;5035020;28;20192;-60
2023/08/08 03:52:26;;;;;;;0.67;0.67;;;;;11.90;96116.00;;;;5035164;28;20698;-60
2023/08/08 03:54:53;;;;;;;0.63;0.63;;;;;11.90;96110.00;;;;5035104;28;20192;-61
2023/08/08 03:57:21;;;;;;;0.73;0.73;;;;;11.80;96111.00;;;;5034607;28;20268;-61
2023/08/08 03:59:49;;;;;;;0.50;0.50;;;;;11.90;96108.00;;;;5035388;28;20687;-60
2023/08/08 04:02:17;;;;;;;0.60;0.60;;;;;11.90;96110.00;;;;5034274;28;20201;-61
2023/08/08 04:04:44;;;;;;;0.60;0.60;;;;;11.90;96112.00;;;;5034633;28;20277;-60
2023/08/08 04:07:11;;;;;;;1.00;1.00;;;;;11.90;96114.00;;;;5034502;28;20575;-61
2023/08/08 04:09:38;;;;;;;0.67;0.67;;;;;11.90;96117.00;;;;5035201;28;20223;-60
2023/08/08 04:12:06;;;;;;;0.70;0.70;;;;;11.90;96121.00;;;;5034749;28;20200;-60
2023/08/08 04:14:33;;;;;;;1.03;1.03;;;;;11.80;96120.00;;;;5035095;28;20208;-60
2023/08/08 04:17:02;;;;;;;0.50;0.50;;;;;11.80;96125.00;;;;5034787;28;20696;-60
2023/08/08 04:19:30;;;;;;;2.37;0.80;;;;;11.80;96125.00;;;;5035262;28;20697;-59
2023/08/08 04:21:57;;;;;;;1.03;0.90;;;;;11.80;96125.00;;;;5034713;28;20192;-59
2023/08/08 04:24:25;;;;;;;0.70;0.70;;;;;11.80;96125.00;;;;5034711;28;20208;-60
2023/08/08 04:26:53;;;;;;;0.70;0.70;;;;;11.80;96125.00;;;;5034585;28;20213;-60
2023/08/08 04:29:20;;;;;;;0.80;0.80;;;;;11.80;96126.00;;;;5034878;28;20581;-60
2023/08/08 04:31:47;;;;;;;0.63;0.63;;;;;11.80;96105.00;;;;5034059;28;20189;-60
2023/08/08 04:34:17;;;;;;;0.63;0.63;;;;;11.80;96121.00;;;;5033077;28;20267;-60
2023/08/08 04:36:44;;;;;;;0.60;0.60;;;;;11.80;96126.00;;;;5035030;28;20216;-60
2023/08/08 04:39:11;;;;;;;0.83;0.83;;;;;11.80;96123.00;;;;5034762;28;20216;-60
2023/08/08 04:41:39;;;;;;;0.70;0.70;;;;;11.80;96115.00;;;;5035325;28;20193;-60
2023/08/08 04:44:06;;;;;;;0.90;0.90;;;;;11.80;96124.00;;;;5034162;28;20201;-60
2023/08/08 04:46:34;;;;;;;0.73;0.73;;;;;11.90;96114.00;;;;5034171;28;20212;-60
2023/08/08 04:49:01;;;;;;;0.50;0.50;;;;;11.90;96123.00;;;;5034009;28;20664;-60
2023/08/08 04:51:30;;;;;;;7.23;1.00;;;;;11.80;96119.00;;;;5034297;28;20604;-60
2023/08/08 04:53:57;;;;;;;0.80;0.80;;;;;11.80;96125.00;;;;5033907;28;20193;-60
2023/08/08 04:56:25;;;;;;;0.67;0.67;;;;;11.80;96133.00;;;;5033733;28;20216;-60
2023/08/08 04:58:52;;;;;;;9.73;0.93;;;;;11.80;96139.00;;;;5033558;28;20204;-61
2023/08/08 05:01:20;;;;;;;0.50;0.50;;;;;11.90;96131.00;;;;5033419;28;20197;-61
2023/08/08 05:03:48;;;;;;;1.00;1.00;;;;;11.90;96127.00;;;;5033678;28;20195;-60
2023/08/08 05:06:15;;;;;;;0.60;0.60;;;;;12.00;96134.00;;;;5033779;28;20224;-60
2023/08/08 05:08:44;;;;;;;0.77;0.77;;;;;12.10;96132.00;;;;5033299;28;20556;-59
2023/08/08 05:11:11;;;;;;;0.70;0.70;;;;;12.30;96135.00;;;;5033639;28;20200;-59
2023/08/08 05:13:39;;;;;;;0.90;0.90;;;;;12.20;96138.00;;;;5032908;28;20189;-59
2023/08/08 05:16:07;;;;;;;0.60;0.60;;;;;12.20;96135.00;;;;5033946;28;20576;-59
2023/08/08 05:18:34;;;;;;;0.90;0.90;;;;;12.20;96122.00;;;;5033730;28;20197;-60
2023/08/08 05:21:01;;;;;;;0.80;0.80;;;;;12.30;96129.00;;;;5033552;28;20266;-60
2023/08/08 05:23:29;;;;;;;1.47;0.80;;;;;12.40;96124.00;;;;5033540;28;20211;-60
2023/08/08 05:25:58;;;;;;;0.77;0.77;;;;;12.50;96122.00;;;;5033175;28;20642;-60
2023/08/08 05:28:25;;;;;;;0.50;0.50;;;;;12.50;96128.00;;;;5033468;28;20200;-60
2023/08/08 05:30:52;;;;;;;0.73;0.73;;;;;12.40;96127.00;;;;5032936;28;20242;-60
2023/08/08 05:33:20;;;;;;;0.97;0.97;;;;;12.50;96129.00;;;;5033093;28;20197;-60
2023/08/08 05:35:47;;;;;;;1.07;1.07;;;;;12.60;96118.00;;;;5033212;28;20588;-60
2023/08/08 05:38:14;;;;;;;0.53;0.53;;;;;12.70;96124.00;;;;5033224;28;20243;-60
2023/08/08 05:40:43;;;;;;;1.60;0.90;;;;;12.70;96130.00;;;;5033246;28;20220;-60
2023/08/08 05:43:16;;;;;;;0.80;0.80;;;;;12.70;96129.00;;;;5033307;28;20203;-60
2023/08/08 05:45:44;;;;;;;0.80;0.80;;;;;12.80;96133.00;;;;5033673;28;20185;-61
2023/08/08 05:48:12;;;;;;;0.60;0.60;;;;;12.70;96122.00;;;;5033086;28;20200;-60
2023/08/08 05:50:40;;;;;;;0.53;0.53;;;;;12.60;96120.00;;;;5033131;28;20236;-60
2023/08/08 05:53:07;;;;;;;0.70;0.70;;;;;12.70;96124.00;;;;5033213;28;20196;-60
2023/08/08 05:55:35;;;;;;;0.70;0.70;;;;;12.80;96121.00;;;;5033513;28;20547;-60
2023/08/08 05:58:02;;;;;;;1.17;1.17;;;;;12.90;96126.00;;;;5033028;28;20262;-60
2023/08/08 06:00:32;;;;;;;0.60;0.60;;;;;13.00;96125.00;;;;5033177;28;20629;-60
2023/08/08 06:02:59;;;;;;;1.20;1.10;;;;;13.00;96123.00;;;;5033094;28;20313;-61
2023/08/08 06:05:27;;;;;;;0.77;0.77;;;;;13.30;96123.00;;;;5031670;28;20203;-60
2023/08/08 06:07:54;;;;;;;0.70;0.70;;;;;13.40;96120.00;;;;5032819;28;20695;-61
2023/08/08 06:10:22;;;;;;;0.77;0.77;;;;;13.50;96124.00;;;;5032760;28;20185;-61
2023/08/08 06:12:50;;;;;;;0.80;0.80;;;;;13.50;96118.00;;;;5033496;28;20197;-60
2023/08/08 06:15:17;;;;;;;0.63;0.63;;;;;13.70;96126.00;;;;5032841;28;20195;-61
2023/08/08 06:17:46;;;;;;;0.63;0.63;;;;;13.90;96125.00;;;;5032701;28;20611;-59
2023/08/08 06:20:13;;;;;;;1.10;1.10;;;;;14.00;96133.00;;;;5033024;28;20299;-60
2023/08/08 06:22:42;;;;;;;0.73;0.73;;;;;14.00;96129.00;;;;5033186;28;20719;-61
2023/08/08 06:25:10;;;;;;;0.60;0.60;;;;;14.20;96126.00;;;;5032606;28;20560;-61
2023/08/08 06:27:38;;;;;;;0.60;0.60;;;;;14.30;96122.00;;;;5030301;28;20242;-59
2023/08/08 06:30:08;;;;;;;1.50;1.07;;;;;14.40;96126.00;;;;5035612;28;20636;-60
2023/08/08 06:32:35;;;;;;;0.50;0.50;;;;;14.40;96112.00;;;;5034954;28;20287;-60
2023/08/08 06:35:05;;;;;;;0.70;0.70;;;;;14.30;96118.00;;;;5034785;28;20686;-59
2023/08/08 06:37:33;;;;;;;0.60;0.60;;;;;14.30;96120.00;;;;5035043;28;20290;-60
2023/08/08 06:40:01;;;;;;;15.17;1.33;;;;;14.50;96117.00;;;;5033114;28;20274;-60
2023/08/08 06:42:28;;;;;;;0.50;0.50;;;;;14.60;96120.00;;;;5035236;28;20200;-60
2023/08/08 06:44:56;;;;;;;0.60;0.60;;;;;14.80;96117.00;;;;5033131;28;20212;-60
2023/08/08 06:47:23;;;;;;;0.90;0.90;;;;;14.50;96118.00;;;;5034926;28;20221;-59
2023/08/08 06:49:51;;;;;;;0.90;0.90;;;;;14.60;96124.00;;;;5034240;28;20208;-60
2023/08/08 06:52:19;;;;;;;1.43;1.03;;;;;14.50;96116.00;;;;5035170;28;20201;-61
2023/08/08 06:54:47;;;;;;;0.60;0.60;;;;;14.70;96119.00;;;;5033994;28;20212;-60
2023/08/08 06:57:14;;;;;;;0.70;0.70;;;;;14.90;96116.00;;;;5034461;28;20580;-60
2023/08/08 06:59:42;;;;;;;0.70;0.70;;;;;14.90;96117.00;;;;5034570;28;20197;-60
2023/08/08 07:02:09;;;;;;;0.67;0.67;;;;;14.90;96111.00;;;;5033501;28;20570;-60
2023/08/08 07:04:37;;;;;;;1.33;1.03;;;;;14.80;96108.00;;;;5034270;28;20200;-60
2023/08/08 07:07:04;;;;;;;0.70;0.70;;;;;14.90;96114.00;;;;5034894;28;20216;-59
2023/08/08 07:09:34;;;;;;;0.90;0.90;;;;;14.70;96109.00;;;;5033905;28;20208;-58
2023/08/08 07:12:02;;;;;;;0.67;0.67;;;;;14.90;96111.00;;;;5034210;28;20602;-59
2023/08/08 07:14:29;;;;;;;0.60;0.60;;;;;15.30;96111.00;;;;5034741;28;20223;-59
2023/08/08 07:16:56;;;;;;;0.40;0.40;;;;;15.20;96106.00;;;;5033614;28;20251;-59
2023/08/08 07:19:24;;;;;;;1.03;1.03;;;;;15.30;96110.00;;;;5033339;28;20196;-59
2023/08/08 07:21:51;;;;;;;0.60;0.60;;;;;15.70;96112.00;;;;5034356;28;20240;-59
2023/08/08 07:24:20;;;;;;;0.80;0.80;;;;;15.50;96110.00;;;;5033759;28;20683;-59
2023/08/08 07:26:49;;;;;;;1.40;1.30;;;;;15.60;96109.00;;;;5033696;28;20220;-59
2023/08/08 07:29:17;;;;;;;0.50;0.50;;;;;15.80;96113.00;;;;5033650;28;20517;-59
2023/08/08 07:31:44;;;;;;;0.70;0.70;;;;;15.50;96112.00;;;;5033664;28;20193;-59
2023/08/08 07:34:12;;;;;;;0.60;0.60;;;;;15.70;96111.00;;;;5033501;28;20664;-59
2023/08/08 07:36:39;;;;;;;0.70;0.70;;;;;15.80;96109.00;;;;5032530;28;20217;-59
2023/08/08 07:39:07;;;;;;;0.83;0.80;;;;;15.90;96109.00;;;;5034265;28;20197;-59
2023/08/08 07:41:34;;;;;;;0.53;0.53;;;;;16.00;96112.00;;;;5033083;28;20220;-59
2023/08/08 07:44:03;;;;;;;0.60;0.60;;;;;15.90;96115.00;;;;5034176;28;20283;-59
2023/08/08 07:46:31;;;;;;;1.20;1.13;;;;;15.70;96100.00;;;;5033297;28;20699;-59
2023/08/08 07:48:59;;;;;;;0.97;0.97;;;;;16.10;96110.00;;;;5029339;28;20197;-59
2023/08/08 07:51:26;;;;;;;0.83;0.83;;;;;16.10;96101.00;;;;5028548;28;20197;-59
2023/08/08 07:53:54;;;;;;;0.60;0.60;;;;;16.10;96103.00;;;;5029630;28;20212;-59
2023/08/08 07:56:21;;;;;;;0.50;0.50;;;;;16.10;96108.00;;;;5028973;28;20216;-60
2023/08/08 07:58:49;;;;;;;0.60;0.60;;;;;16.20;96110.00;;;;5033281;28;20668;-60
2023/08/08 08:01:18;;;;;;;0.80;0.80;;;;;16.20;96104.00;;;;5033189;28;20220;-59
2023/08/08 08:03:45;;;;;;;0.60;0.60;;;;;16.40;96097.00;;;;5028686;28;20243;-59
2023/08/08 08:06:13;;;;;;;0.60;0.60;;;;;16.60;96094.00;;;;5033654;28;20583;-60
2023/08/08 08:08:41;;;;;;;0.50;0.50;;;;;16.80;96093.00;;;;5032845;28;20197;-60
2023/08/08 08:11:08;;;;;;;0.60;0.60;;;;;16.60;96099.00;;;;5033856;28;20193;-60
2023/08/08 08:13:35;;;;;;;1.40;1.07;;;;;16.60;96100.00;;;;5032614;28;20204;-60
2023/08/08 08:16:03;;;;;;;0.60;0.60;;;;;16.70;96109.00;;;;5033257;28;20213;-60
2023/08/08 08:18:33;;;;;;;0.80;0.80;;;;;16.50;96112.00;;;;5032945;28;20560;-60
2023/08/08 08:21:01;;;;;;;0.60;0.60;;;;;16.40;96105.00;;;;5032319;28;20220;-60
2023/08/08 08:23:28;;;;;;;0.53;0.53;;;;;16.40;96107.00;;;;5033213;28;20196;-60
2023/08/08 08:25:56;;;;;;;0.50;0.50;;;;;16.50;96111.00;;;;5032779;28;20228;-60
2023/08/08 08:28:23;;;;;;;0.80;0.80;;;;;16.40;96111.00;;;;5032591;28;20204;-60
2023/08/08 08:30:51;;;;;;;0.50;0.50;;;;;16.50;96131.00;;;;5033124;28;20734;-60
2023/08/08 08:33:18;;;;;;;0.53;0.53;;;;;16.50;96118.00;;;;5033056;28;20200;-60
2023/08/08 08:35:47;;;;;;;0.60;0.60;;;;;16.60;96107.00;;;;5032622;28;20192;-59
2023/08/08 08:38:14;;;;;;;0.73;0.73;;;;;16.90;96108.00;;;;5033878;28;20196;-60
2023/08/08 08:40:45;;;;;;;0.80;0.80;;;;;16.70;96092.00;;;;5032420;28;20224;-60
2023/08/08 08:43:13;;;;;;;0.70;0.70;;;;;17.00;96090.00;;;;5032744;28;20196;-60
2023/08/08 08:45:44;;;;;;;0.73;0.73;;;;;17.30;96090.00;;;;5032716;28;20664;-61
2023/08/08 08:48:13;;;;;;;1.23;1.13;;;;;17.10;96085.00;;;;5032601;28;20196;-60
2023/08/08 08:50:41;;;;;;;0.57;0.57;;;;;17.40;96085.00;;;;5033172;28;20196;-61
2023/08/08 08:53:10;;;;;;;0.70;0.70;;;;;17.90;96087.00;;;;5031041;28;20296;-61
2023/08/08 08:55:38;;;;;;;0.60;0.60;;;;;17.70;96087.00;;;;5030850;28;20205;-61
2023/08/08 08:58:06;;;;;;;0.50;0.50;;;;;17.50;96102.00;;;;5032356;28;20216;-61
2023/08/08 09:00:35;;;;;;;0.50;0.50;;;;;17.30;96097.00;;;;5032933;28;20228;-61
2023/08/08 09:03:04;;;;;;;0.47;0.47;;;;;17.30;96086.00;;;;5032188;28;20201;-61
2023/08/08 09:05:32;;;;;;;0.50;0.50;;;;;17.20;96078.00;;;;5032335;28;20663;-61
2023/08/08 09:08:00;;;;;;;0.53;0.53;;;;;17.60;96080.00;;;;5032619;28;20211;-61
2023/08/08 09:10:31;;;;;;;1.03;1.03;;;;;17.90;96056.00;;;;5032576;28;20197;-61
2023/08/08 09:12:58;;;;;;;0.57;0.57;;;;;17.90;96095.00;;;;5032217;28;20204;-61
2023/08/08 09:15:26;;;;;;;0.50;0.50;;;;;17.60;96085.00;;;;5032396;28;20208;-61
2023/08/08 09:17:54;;;;;;;0.83;0.83;;;;;17.70;96086.00;;;;5030918;28;20225;-62
2023/08/08 09:20:21;;;;;;;0.50;0.50;;;;;17.70;96085.00;;;;5032357;28;20197;-60
2023/08/08 09:22:49;;;;;;;0.57;0.57;;;;;17.70;96077.00;;;;5032160;28;20197;-61
2023/08/08 09:25:16;;;;;;;11.23;1.10;;;;;18.10;96082.00;;;;5031421;28;20209;-60
2023/08/08 09:27:46;;;;;;;0.50;0.50;;;;;18.10;96093.00;;;;5031621;28;20221;-61
2023/08/08 09:30:13;;;;;;;0.57;0.57;;;;;18.20;96078.00;;;;5031855;28;20228;-60
2023/08/08 09:32:41;;;;;;;0.70;0.70;;;;;18.10;96071.00;;;;5031981;28;20219;-62
2023/08/08 09:35:10;;;;;;;3.57;1.30;;;;;18.10;96063.00;;;;5031700;28;20207;-61
2023/08/08 09:37:38;;;;;;;0.70;0.70;;;;;18.60;96081.00;;;;5031380;28;20217;-62
2023/08/08 09:40:11;;;;;;;0.50;0.50;;;;;18.70;96059.00;;;;5031732;28;20196;-61
2023/08/08 09:42:38;;;;;;;0.83;0.83;;;;;18.50;96067.00;;;;5031841;28;20303;-61
2023/08/08 09:45:09;;;;;;;0.87;0.87;;;;;18.50;96088.00;;;;5031485;28;20200;-61
2023/08/08 09:47:37;;;;;;;0.50;0.50;;;;;18.70;96061.00;;;;5031901;28;20217;-61
2023/08/08 09:50:06;;;;;;;0.60;0.60;;;;;18.50;96063.00;;;;5031226;28;20202;-61
2023/08/08 09:52:35;;;;;;;0.77;0.77;;;;;18.00;96081.00;;;;5031385;28;20203;-61
2023/08/08 09:55:03;;;;;;;0.50;0.50;;;;;18.60;96067.00;;;;5031073;28;20698;-61
2023/08/08 09:57:32;;;;;;;0.93;0.93;;;;;18.50;96075.00;;;;5031080;28;20298;-61
2023/08/08 10:00:00;;;;;;;0.40;0.40;;;;;18.40;96068.00;;;;5030863;28;20215;-61
2023/08/08 10:02:30;;;;;;;0.60;0.60;;;;;18.50;96067.00;;;;5031909;28;20216;-61
2023/08/08 10:04:59;;;;;;;0.70;0.70;;;;;18.60;96065.00;;;;5030795;28;20201;-61
2023/08/08 10:07:26;;;;;;;0.70;0.70;;;;;18.30;96064.00;;;;5031390;28;20735;-62
2023/08/08 10:09:54;;;;;;;3.00;1.07;;;;;18.50;96073.00;;;;5031415;28;20656;-61
2023/08/08 10:12:23;;;;;;;0.80;0.80;;;;;18.40;96064.00;;;;5031867;28;20200;-61
2023/08/08 10:14:52;;;;;;;0.60;0.60;;;;;18.40;96049.00;;;;5029945;28;20200;-61
2023/08/08 10:17:20;;;;;;;0.67;0.67;;;;;18.50;96053.00;;;;5031475;28;20242;-60
2023/08/08 10:19:59;;;;;;;0.80;0.80;;;;;18.60;96063.00;;;;5030163;28;20205;-60
2023/08/08 10:22:28;;;;;;;0.50;0.50;;;;;18.60;96059.00;;;;5031293;28;20243;-62
2023/08/08 10:24:56;;;;;;;0.57;0.57;;;;;18.40;96073.00;;;;5031143;28;20201;-60
2023/08/08 10:27:32;;;;;;;0.67;0.67;;;;;18.30;96073.00;;;;5030935;28;20590;-60
2023/08/08 10:30:04;;;;;;;0.70;0.70;;;;;18.90;96062.00;;;;5030842;28;20188;-60
2023/08/08 10:32:40;;;;;;;0.57;0.57;;;;;18.90;96054.00;;;;5031027;28;20189;-62
2023/08/08 10:35:10;;;;;;;0.50;0.50;;;;;18.90;96063.00;;;;5030904;28;20200;-60
2023/08/08 10:37:38;;;;;;;0.60;0.60;;;;;18.90;96057.00;;;;5030780;28;20216;-60
2023/08/08 10:40:07;;;;;;;1.13;0.73;;;;;18.90;96054.00;;;;5030875;28;20222;-60
2023/08/08 10:42:42;;;;;;;0.40;0.40;;;;;19.10;96054.00;;;;5030807;28;20690;-60
2023/08/08 10:45:13;;;;;;;0.50;0.50;;;;;19.20;96058.00;;;;5031002;28;20652;-61
2023/08/08 10:47:41;;;;;;;0.40;0.40;;;;;18.80;96078.00;;;;5031011;28;20221;-61
2023/08/08 10:50:12;;;;;;;0.50;0.50;;;;;19.10;96083.00;;;;5030908;28;20197;-61
2023/08/08 10:52:53;;;;;;;0.73;0.73;;;;;18.40;96068.00;;;;5031090;28;20189;-62
2023/08/08 10:55:22;;;;;;;0.70;0.70;;;;;18.60;96053.00;;;;5031008;28;20193;-60
2023/08/08 10:58:00;;;;;;;0.60;0.60;;;;;18.90;96043.00;;;;5030748;28;20255;-61
2023/08/08 11:00:31;;;;;;;0.70;0.70;;;;;19.40;96066.00;;;;5030704;28;20556;-60
2023/08/08 11:02:59;;;;;;;0.50;0.50;;;;;18.90;96081.00;;;;5030632;28;20216;-61
2023/08/08 11:05:30;;;;;;;0.67;0.67;;;;;18.80;96049.00;;;;5031054;28;20660;-60
2023/08/08 11:07:58;;;;;;;0.50;0.50;;;;;19.20;96055.00;;;;5030034;28;20648;-61
2023/08/08 11:10:30;;;;;;;0.80;0.80;;;;;19.70;96063.00;;;;5030732;28;20207;-61
2023/08/08 11:13:00;;;;;;;0.40;0.40;;;;;19.10;96051.00;;;;5032949;28;20185;-60
2023/08/08 11:15:27;;;;;;;0.77;0.77;;;;;19.40;96049.00;;;;5034569;28;20197;-60
2023/08/08 11:17:55;;;;;;;0.40;0.40;;;;;19.30;96041.00;;;;5033869;28;20581;-62
2023/08/08 11:20:23;;;;;;;0.50;0.50;;;;;19.50;96034.00;;;;5034509;28;20200;-60
2023/08/08 11:22:55;;;;;;;1.27;0.60;;;;;19.70;96033.00;;;;5033451;28;20305;-62
2023/08/08 11:25:26;;;;;;;0.40;0.40;;;;;20.00;96029.00;;;;5034235;28;20205;-59
2023/08/08 11:27:54;;;;;;;0.60;0.60;;;;;19.70;96031.00;;;;5033424;28;20225;-61
2023/08/08 11:30:23;;;;;;;0.50;0.50;;;;;19.70;96049.00;;;;5034121;28;20603;-61
2023/08/08 11:32:51;;;;;;;1.03;0.63;;;;;20.00;96025.00;;;;5033493;28;20617;-61
2023/08/08 11:35:22;;;;;;;0.70;0.70;;;;;20.00;96073.00;;;;5033369;28;20664;-60
2023/08/08 11:37:50;;;;;;;0.50;0.50;;;;;19.90;96055.00;;;;5033437;28;20684;-60
2023/08/08 11:40:20;;;;;;;0.73;0.73;;;;;20.40;96031.00;;;;5032784;28;20209;-60
2023/08/08 11:42:50;;;;;;;0.60;0.60;;;;;21.00;96037.00;;;;5028597;28;20220;-60
2023/08/08 11:45:20;;;;;;;0.70;0.70;;;;;21.00;96041.00;;;;5034697;28;20276;-60
2023/08/08 11:47:51;;;;;;;0.77;0.77;;;;;21.40;96029.00;;;;5033276;28;20723;-61
2023/08/08 11:50:22;;;;;;;0.50;0.50;;;;;20.90;96038.00;;;;5033984;28;20204;-60
2023/08/08 11:52:52;;;;;;;0.60;0.60;;;;;20.80;96051.00;;;;5031881;28;20208;-61
2023/08/08 11:55:22;;;;;;;0.70;0.70;;;;;20.30;96067.00;;;;5032502;28;20231;-61
2023/08/08 11:57:50;;;;;;;0.50;0.50;;;;;19.90;96063.00;;;;5032008;28;20316;-60
2023/08/08 12:00:18;;;;;;;0.80;0.80;;;;;20.20;96034.00;;;;5033916;28;20275;-61
2023/08/08 12:02:47;;;;;;;0.57;0.57;;;;;20.20;96052.00;;;;5032665;28;20220;-61
2023/08/08 12:05:16;;;;;;;3.07;0.60;;;;;20.30;96049.00;;;;5032956;28;20205;-61
2023/08/08 12:07:45;;;;;;;1.33;1.00;;;;;20.60;96016.00;;;;5033158;28;20221;-61
2023/08/08 12:10:18;;;;;;;0.77;0.77;;;;;20.90;96027.00;;;;5033122;28;20201;-61
2023/08/08 12:12:47;;;;;;;0.50;0.50;;;;;21.20;96030.00;;;;5033290;28;20197;-62
2023/08/08 12:15:15;;;;;;;0.70;0.70;;;;;20.60;96013.00;;;;5033169;28;20205;-60
2023/08/08 12:17:44;;;;;;;0.50;0.50;;;;;20.70;96024.00;;;;5033072;28;20220;-62
2023/08/08 12:20:12;;;;;;;0.77;0.77;;;;;20.80;96030.00;;;;5033109;28;20220;-61
2023/08/08 12:22:39;;;;;;;0.50;0.50;;;;;20.70;96041.00;;;;5032705;28;20220;-62